createdAt,value
2023-05-22T00:10:10.147Z,23.90
2023-05-22T00:20:33.130Z,23.90
2023-05-22T00:30:54.499Z,23.70
2023-05-22T00:41:20.122Z,23.70
2023-05-22T00:51:43.926Z,23.60
2023-05-22T01:02:10.441Z,23.50
2023-05-22T01:12:35.591Z,23.30
2023-05-22T01:23:44.005Z,23.20
2023-05-22T01:34:10.519Z,23.10
2023-05-22T01:44:33.968Z,23.00
2023-05-22T01:55:29.261Z,22.80
2023-05-22T02:05:58.004Z,22.60
2023-05-22T02:16:24.960Z,22.40
2023-05-22T02:26:48.556Z,22.30
2023-05-22T02:37:13.158Z,21.90
2023-05-22T02:47:35.332Z,21.70
2023-05-22T02:57:59.101Z,21.50
2023-05-22T03:08:21.103Z,21.50
2023-05-22T03:18:44.638Z,21.40
2023-05-22T03:29:08.791Z,21.50
2023-05-22T03:39:34.932Z,21.20
2023-05-22T03:50:06.766Z,21.30
2023-05-22T04:00:30.008Z,21.50
2023-05-22T04:10:54.481Z,21.90
2023-05-22T04:21:19.068Z,21.50
2023-05-22T04:31:40.831Z,21.80
2023-05-22T04:42:05.893Z,22.60
2023-05-22T04:52:27.533Z,22.90
2023-05-22T05:02:51.882Z,22.90
2023-05-22T05:13:13.748Z,23.00
2023-05-22T05:23:36.846Z,23.40
2023-05-22T05:33:58.738Z,23.80
2023-05-22T05:44:31.412Z,23.40
2023-05-22T05:54:54.162Z,23.50
2023-05-22T06:05:19.312Z,24.10
2023-05-22T06:15:43.918Z,25.00
2023-05-22T06:26:07.091Z,24.60
2023-05-22T06:36:31.717Z,24.90
2023-05-22T06:46:56.149Z,24.50
2023-05-22T06:57:23.955Z,24.90
2023-05-22T07:07:47.340Z,26.30
2023-05-22T07:18:10.181Z,26.70
2023-05-22T07:28:35.576Z,27.40
2023-05-22T07:39:05.560Z,27.30
2023-05-22T07:49:33.780Z,27.30
2023-05-22T07:59:56.990Z,28.10
2023-05-22T08:10:21.395Z,28.70
2023-05-22T08:20:43.021Z,28.60
2023-05-22T08:31:09.898Z,28.90
2023-05-22T08:41:31.715Z,30.50
2023-05-22T08:52:01.244Z,30.60
2023-05-22T09:02:24.610Z,30.00
2023-05-22T09:13:11.762Z,30.30
2023-05-22T09:23:34.872Z,30.80
2023-05-22T09:33:57.779Z,30.50
2023-05-22T09:44:19.566Z,31.50
2023-05-22T09:54:54.898Z,30.10
2023-05-22T10:05:21.868Z,31.00
2023-05-22T10:15:48.579Z,31.10
2023-05-22T10:26:12.342Z,31.00
2023-05-22T10:36:47.654Z,31.20
2023-05-22T10:47:12.649Z,31.80
2023-05-22T10:57:37.841Z,32.10
2023-05-22T11:08:13.125Z,30.40
2023-05-22T11:18:36.217Z,31.40
2023-05-22T11:29:01.185Z,31.70
2023-05-22T11:39:24.336Z,30.90
2023-05-22T11:49:46.188Z,31.20
2023-05-22T12:00:10.781Z,32.00
2023-05-22T12:10:35.337Z,31.00
2023-05-22T12:21:02.570Z,31.20
2023-05-22T12:31:24.317Z,32.30
2023-05-22T12:41:47.369Z,33.10
2023-05-22T12:52:09.008Z,31.80
2023-05-22T13:02:32.154Z,31.50
2023-05-22T13:12:54.039Z,32.30
2023-05-22T13:23:16.739Z,34.10
2023-05-22T13:33:38.426Z,33.50
2023-05-22T13:44:01.598Z,33.00
2023-05-22T13:54:25.981Z,33.30
2023-05-22T14:04:51.219Z,33.90
2023-05-22T14:15:13.154Z,32.60
2023-05-22T14:25:36.057Z,33.40
2023-05-22T14:35:57.536Z,32.60
2023-05-22T14:46:20.110Z,32.30
2023-05-22T14:56:42.080Z,32.80
2023-05-22T15:07:05.699Z,33.20
2023-05-22T15:17:27.383Z,32.60
2023-05-22T15:27:50.437Z,32.80
2023-05-22T15:38:13.202Z,32.80
2023-05-22T15:48:36.354Z,32.30
2023-05-22T15:58:58.229Z,32.20
2023-05-22T16:09:21.249Z,31.50
2023-05-22T16:19:43.280Z,31.40
2023-05-22T16:30:07.808Z,31.70
2023-05-22T16:40:29.855Z,31.20
2023-05-22T16:50:53.003Z,31.10
2023-05-22T17:01:14.867Z,30.70
2023-05-22T17:11:38.006Z,30.30
2023-05-22T17:21:59.849Z,31.30
2023-05-22T17:32:23.667Z,30.80
2023-05-22T17:42:45.130Z,30.20
2023-05-22T17:53:08.442Z,30.10
2023-05-22T18:03:31.792Z,29.90
2023-05-22T18:13:54.580Z,29.30
2023-05-22T18:24:17.393Z,28.90
2023-05-22T18:34:41.009Z,27.90
2023-05-22T18:45:02.235Z,27.40
2023-05-22T18:55:28.928Z,27.00
2023-05-22T19:05:52.562Z,26.70
2023-05-22T19:16:15.967Z,26.80
2023-05-22T19:26:37.716Z,26.50
2023-05-22T19:37:01.372Z,26.20
2023-05-22T19:47:25.288Z,25.70
2023-05-22T19:57:48.306Z,25.30
2023-05-22T20:08:14.154Z,25.00
2023-05-22T20:18:38.332Z,24.90
2023-05-22T20:29:00.466Z,24.60
2023-05-22T20:39:23.885Z,24.40
2023-05-22T20:49:45.755Z,24.30
2023-05-22T21:00:13.789Z,24.10
2023-05-22T21:10:35.704Z,23.90
2023-05-22T21:20:59.144Z,23.80
2023-05-22T21:31:21.433Z,23.70
2023-05-22T21:41:44.677Z,23.50
2023-05-22T21:52:06.864Z,23.50
2023-05-22T22:02:29.842Z,23.30
2023-05-22T22:12:52.700Z,23.30
2023-05-22T22:23:16.068Z,23.20
2023-05-22T22:33:37.815Z,23.40
2023-05-22T22:44:01.072Z,23.10
2023-05-22T22:54:22.649Z,23.00
2023-05-22T23:04:45.924Z,22.90
2023-05-22T23:15:09.146Z,22.80
2023-05-22T23:25:32.071Z,23.00
2023-05-22T23:35:54.934Z,22.60
2023-05-22T23:46:21.035Z,22.50
2023-05-22T23:56:43.234Z,22.10
